Time;durP1;ratioP1;P1;durP2;ratioP2;P2;SDS_P1;SDS_P2;PMS_P1;PMS_P2;Temp;Humidity;BMP_temperature;BMP_pressure;BME280_temperature;BME280_humidity;BME280_pressure;Samples;Min_cycle;Max_cycle;Signal;HPM_P1;HPM_P2
2023/10/19 00:00:20;;;;;;;;;;;;;;;;;;6177957;23;19922;-87
2023/10/19 00:02:46;;;;;;;;;;;;;;;;;;6148724;23;19951;-88
2023/10/19 00:05:14;;;;;;;;;;;;;;;;;;6202829;23;19966;-88
2023/10/19 00:07:41;;;;;;;;;;;;;;;;;;6175150;23;20020;-87
2023/10/19 00:10:06;;;;;;;;;;;;;;;;;;6151895;23;20284;-87
2023/10/19 00:12:32;;;;;;;;;;;;;;;;;;6175252;23;19951;-88
2023/10/19 00:14:59;;;;;;;;;;;;;;;;;;6174586;23;19920;-87
2023/10/19 00:17:27;;;;;;;;;;;;;;;;;;6202480;23;19924;-87
2023/10/19 00:20:28;;;;;;;;;;;;;;;;;;6198752;23;19920;-87
2023/10/19 00:22:46;;;;;;;;;;;;;;;;;;6170267;23;20056;-87
2023/10/19 00:25:15;;;;;;;;;;;;;;;;;;6146604;23;19927;-87
2023/10/19 00:27:42;;;;;;;;;;;;;;;;;;6173551;23;19920;-87
2023/10/19 00:30:10;;;;;;;;;;;;;;;;;;6174702;23;20249;-87
2023/10/19 00:32:38;;;;;;;;;;;;;;;;;;6198761;23;20344;-87
2023/10/19 00:35:07;;;;;;;;;;;;;;;;;;6147022;23;19920;-87
2023/10/19 00:37:42;;;;;;;;;;;;;;;;;;6150907;23;19931;-87
2023/10/19 00:40:15;;;;;;;;;;;;;;;;;;6202688;23;19987;-87
2023/10/19 00:42:46;;;;;;;;;;;;;;;;;;6199512;23;20337;-87
2023/10/19 00:45:13;;;;;;;;;;;;;;;;;;6149411;23;19974;-87
2023/10/19 00:47:42;;;;;;;;;;;;;;;;;;6199436;23;20569;-87
2023/10/19 00:50:15;;;;;;;;;;;;;;;;;;6195284;23;20329;-87
2023/10/19 00:52:49;;;;;;;;;;;;;;;;;;6150124;23;20601;-87
2023/10/19 00:55:15;;;;;;;;;;;;;;;;;;6203675;23;19954;-87
2023/10/19 00:57:45;;;;;;;;;;;;;;;;;;6149300;23;19931;-87
2023/10/19 01:00:11;;;;;;;;;;;;;;;;;;6202171;23;20427;-87
2023/10/19 01:02:43;;;;;;;;;;;;;;;;;;6144186;23;19995;-87
2023/10/19 01:05:13;;;;;;;;;;;;;;;;;;6174753;23;19932;-87
2023/10/19 01:07:38;;;;;;;;;;;;;;;;;;6201530;23;19995;-87
2023/10/19 01:10:21;;;;;;;;;;;;;;;;;;6177222;23;19951;-87
2023/10/19 01:12:47;;;;;;;;;;;;;;;;;;6173833;23;19952;-87
2023/10/19 01:17:57;;;;;;;;;;;;;;;;;;6169620;23;19973;-88
2023/10/19 01:20:33;;;;;;;;;;;;;;;;;;6202469;23;19948;-88
2023/10/19 01:23:35;;;;;;;;;;;;;;;;;;6148186;23;19955;-88
2023/10/19 01:31:08;;;;;;;;;;;;;;;;;;6173397;23;19919;-88
2023/10/19 01:33:37;;;;;;;;;;;;;;;;;;6147386;23;19966;-87
2023/10/19 01:38:47;;;;;;;;;;;;;;;;;;6175780;23;19923;-88
2023/10/19 01:41:13;;;;;;;;;;;;;;;;;;6151031;23;20759;-87
2023/10/19 01:43:40;;;;;;;;;;;;;;;;;;6174640;23;19947;-88
2023/10/19 01:46:11;;;;;;;;;;;;;;;;;;6149020;23;19924;-87
2023/10/19 01:48:38;;;;;;;;;;;;;;;;;;6174151;23;19927;-87
2023/10/19 01:51:10;;;;;;;;;;;;;;;;;;6173308;23;19920;-87
2023/10/19 01:53:39;;;;;;;;;;;;;;;;;;6171702;23;20253;-87
2023/10/19 01:56:05;;;;;;;;;;;;;;;;;;6174080;23;19920;-88
2023/10/19 01:58:34;;;;;;;;;;;;;;;;;;6174123;23;20006;-88
2023/10/19 02:01:06;;;;;;;;;;;;;;;;;;6148011;23;19915;-88
2023/10/19 02:03:33;;;;;;;;;;;;;;;;;;6174118;23;20234;-88
2023/10/19 02:05:59;;;;;;;;;;;;;;;;;;6169915;23;19959;-88
2023/10/19 02:08:26;;;;;;;;;;;;;;;;;;6151195;23;19955;-88
2023/10/19 02:10:52;;;;;;;;;;;;;;;;;;6171968;23;19920;-88
2023/10/19 02:13:19;;;;;;;;;;;;;;;;;;6173483;23;19920;-88
2023/10/19 02:15:45;;;;;;;;;;;;;;;;;;6146384;23;20023;-88
2023/10/19 02:18:11;;;;;;;;;;;;;;;;;;6149533;23;19998;-88
2023/10/19 02:20:41;;;;;;;;;;;;;;;;;;6199144;23;19926;-88
2023/10/19 02:23:07;;;;;;;;;;;;;;;;;;6148982;23;19993;-87
2023/10/19 02:25:37;;;;;;;;;;;;;;;;;;6175170;23;20454;-88
2023/10/19 02:28:03;;;;;;;;;;;;;;;;;;6176892;23;19959;-88
2023/10/19 02:30:30;;;;;;;;;;;;;;;;;;6174673;23;19924;-87
2023/10/19 02:32:56;;;;;;;;;;;;;;;;;;6171922;23;19995;-87
2023/10/19 02:35:22;;;;;;;;;;;;;;;;;;6171069;23;19919;-88
2023/10/19 02:37:48;;;;;;;;;;;;;;;;;;6171621;23;20269;-88
2023/10/19 02:40:23;;;;;;;;;;;;;;;;;;6173535;23;19920;-88
2023/10/19 02:42:53;;;;;;;;;;;;;;;;;;6144131;23;19924;-87
2023/10/19 02:45:19;;;;;;;;;;;;;;;;;;6173233;23;19928;-88
2023/10/19 02:47:45;;;;;;;;;;;;;;;;;;6170585;23;19926;-88
2023/10/19 02:50:16;;;;;;;;;;;;;;;;;;6148915;23;19987;-87
2023/10/19 02:52:43;;;;;;;;;;;;;;;;;;6173847;23;20299;-88
2023/10/19 02:55:09;;;;;;;;;;;;;;;;;;6177645;23;20147;-87
2023/10/19 02:57:35;;;;;;;;;;;;;;;;;;6175403;23;20345;-87
2023/10/19 03:00:07;;;;;;;;;;;;;;;;;;6148821;23;19986;-87
2023/10/19 03:02:33;;;;;;;;;;;;;;;;;;6173269;23;19927;-87
2023/10/19 03:05:00;;;;;;;;;;;;;;;;;;6172409;23;19924;-87
2023/10/19 03:07:26;;;;;;;;;;;;;;;;;;6205896;23;19959;-87
2023/10/19 03:09:55;;;;;;;;;;;;;;;;;;6173594;23;20288;-87
2023/10/19 03:12:25;;;;;;;;;;;;;;;;;;6174573;23;19919;-87
2023/10/19 03:14:51;;;;;;;;;;;;;;;;;;6145490;23;20108;-87
2023/10/19 03:17:18;;;;;;;;;;;;;;;;;;6175653;23;19919;-88
2023/10/19 03:19:44;;;;;;;;;;;;;;;;;;6199859;23;19920;-88
2023/10/19 03:22:11;;;;;;;;;;;;;;;;;;6175375;23;20399;-88
2023/10/19 03:24:40;;;;;;;;;;;;;;;;;;6175059;23;19966;-87
2023/10/19 03:27:15;;;;;;;;;;;;;;;;;;6149683;23;19920;-88
2023/10/19 03:29:45;;;;;;;;;;;;;;;;;;6148122;23;19920;-88
2023/10/19 03:32:12;;;;;;;;;;;;;;;;;;6173683;23;19926;-88
2023/10/19 03:34:38;;;;;;;;;;;;;;;;;;6199358;23;19999;-87
2023/10/19 03:37:05;;;;;;;;;;;;;;;;;;6170500;23;19924;-88
2023/10/19 03:39:33;;;;;;;;;;;;;;;;;;6175416;23;19919;-87
2023/10/19 03:41:59;;;;;;;;;;;;;;;;;;6170211;23;19947;-87
2023/10/19 03:44:25;;;;;;;;;;;;;;;;;;6171890;23;20234;-88
2023/10/19 03:47:14;;;;;;;;;;;;;;;;;;6174068;23;20252;-88
2023/10/19 03:49:39;;;;;;;;;;;;;;;;;;6172010;23;20356;-87
2023/10/19 03:54:40;;;;;;;;;;;;;;;;;;6203898;23;20336;-87
2023/10/19 03:57:08;;;;;;;;;;;;;;;;;;6174880;23;20430;-89
2023/10/19 03:59:34;;;;;;;;;;;;;;;;;;6170866;23;20039;-87
2023/10/19 04:02:07;;;;;;;;;;;;;;;;;;6198054;23;19931;-87
2023/10/19 04:04:33;;;;;;;;;;;;;;;;;;6147611;23;19920;-87
2023/10/19 04:06:59;;;;;;;;;;;;;;;;;;6169255;23;19935;-87
2023/10/19 04:09:28;;;;;;;;;;;;;;;;;;6174584;23;20264;-87
2023/10/19 04:11:55;;;;;;;;;;;;;;;;;;6150177;23;19943;-87
2023/10/19 04:14:21;;;;;;;;;;;;;;;;;;6152620;23;19919;-87
2023/10/19 04:16:48;;;;;;;;;;;;;;;;;;6149651;23;19943;-87
2023/10/19 04:19:15;;;;;;;;;;;;;;;;;;6175221;23;19919;-87
2023/10/19 04:21:46;;;;;;;;;;;;;;;;;;6174773;23;19924;-87
2023/10/19 04:24:12;;;;;;;;;;;;;;;;;;6201014;23;19923;-87
2023/10/19 04:26:38;;;;;;;;;;;;;;;;;;6201058;23;19924;-87
2023/10/19 04:29:09;;;;;;;;;;;;;;;;;;6150973;23;20262;-87
2023/10/19 04:31:37;;;;;;;;;;;;;;;;;;6202696;23;19994;-89
2023/10/19 04:34:07;;;;;;;;;;;;;;;;;;6203752;23;19919;-88
2023/10/19 04:36:33;;;;;;;;;;;;;;;;;;6148363;23;19927;-87
2023/10/19 04:39:00;;;;;;;;;;;;;;;;;;6172177;23;19939;-87
2023/10/19 04:41:29;;;;;;;;;;;;;;;;;;6174005;23;19919;-87
2023/10/19 04:43:58;;;;;;;;;;;;;;;;;;6199060;23;19923;-88
2023/10/19 04:46:24;;;;;;;;;;;;;;;;;;6200384;23;20348;-87
2023/10/19 04:48:50;;;;;;;;;;;;;;;;;;6172450;23;20355;-87
2023/10/19 04:51:17;;;;;;;;;;;;;;;;;;6174388;23;19920;-87
2023/10/19 04:53:43;;;;;;;;;;;;;;;;;;6140893;23;20356;-88
2023/10/19 04:56:09;;;;;;;;;;;;;;;;;;6201383;23;19931;-87
2023/10/19 04:58:35;;;;;;;;;;;;;;;;;;6149146;23;20102;-88
2023/10/19 05:01:03;;;;;;;;;;;;;;;;;;6169205;23;19923;-85
2023/10/19 05:03:29;;;;;;;;;;;;;;;;;;6174563;23;20249;-86
2023/10/19 05:05:56;;;;;;;;;;;;;;;;;;6172475;23;19920;-86
2023/10/19 05:08:24;;;;;;;;;;;;;;;;;;6172028;23;19919;-87
2023/10/19 05:10:50;;;;;;;;;;;;;;;;;;6146327;23;19920;-86
2023/10/19 05:13:16;;;;;;;;;;;;;;;;;;6202009;23;19920;-86
2023/10/19 05:15:42;;;;;;;;;;;;;;;;;;6200284;23;19941;-85
2023/10/19 05:18:08;;;;;;;;;;;;;;;;;;6153421;23;20330;-86
2023/10/19 05:20:37;;;;;;;;;;;;;;;;;;6204010;23;19962;-86
2023/10/19 05:23:04;;;;;;;;;;;;;;;;;;6150498;23;19920;-85
2023/10/19 05:25:30;;;;;;;;;;;;;;;;;;6201956;23;20410;-86
2023/10/19 05:27:56;;;;;;;;;;;;;;;;;;6146434;23;19916;-86
2023/10/19 05:30:22;;;;;;;;;;;;;;;;;;6152636;23;19923;-86
2023/10/19 05:32:49;;;;;;;;;;;;;;;;;;6201056;23;19927;-85
2023/10/19 05:35:22;;;;;;;;;;;;;;;;;;6203616;23;19926;-86
2023/10/19 05:37:49;;;;;;;;;;;;;;;;;;6200285;23;19924;-86
2023/10/19 05:40:15;;;;;;;;;;;;;;;;;;6152346;23;19991;-86
2023/10/19 05:42:47;;;;;;;;;;;;;;;;;;6172841;23;20368;-86
2023/10/19 05:45:16;;;;;;;;;;;;;;;;;;6177485;23;20002;-86
2023/10/19 05:47:42;;;;;;;;;;;;;;;;;;6174613;23;19926;-88
2023/10/19 05:50:09;;;;;;;;;;;;;;;;;;6174327;23;19926;-87
2023/10/19 05:52:35;;;;;;;;;;;;;;;;;;6148486;23;19919;-88
2023/10/19 05:55:01;;;;;;;;;;;;;;;;;;6173214;23;19938;-88
2023/10/19 05:57:27;;;;;;;;;;;;;;;;;;6151719;23;20000;-87
2023/10/19 05:59:53;;;;;;;;;;;;;;;;;;6170828;23;19920;-86
2023/10/19 06:02:19;;;;;;;;;;;;;;;;;;6170524;23;19973;-89
2023/10/19 06:04:45;;;;;;;;;;;;;;;;;;6169585;23;19920;-87
2023/10/19 06:07:11;;;;;;;;;;;;;;;;;;6154146;23;20382;-87
2023/10/19 06:09:37;;;;;;;;;;;;;;;;;;6177372;23;19993;-87
2023/10/19 06:12:03;;;;;;;;;;;;;;;;;;6152953;23;19919;-87
2023/10/19 06:14:30;;;;;;;;;;;;;;;;;;6180454;23;20252;-87
2023/10/19 06:16:56;;;;;;;;;;;;;;;;;;6149957;23;19927;-87
2023/10/19 06:19:22;;;;;;;;;;;;;;;;;;6156279;23;19924;-87
2023/10/19 06:21:48;;;;;;;;;;;;;;;;;;6152708;23;19920;-87
2023/10/19 06:24:14;;;;;;;;;;;;;;;;;;6155834;23;19927;-87
2023/10/19 06:26:40;;;;;;;;;;;;;;;;;;6152840;23;19927;-87
2023/10/19 06:29:06;;;;;;;;;;;;;;;;;;6180716;23;19952;-87
2023/10/19 06:31:32;;;;;;;;;;;;;;;;;;6154990;23;19927;-86
2023/10/19 06:34:00;;;;;;;;;;;;;;;;;;6177419;23;20232;-86
2023/10/19 06:36:26;;;;;;;;;;;;;;;;;;6178916;23;19994;-86
2023/10/19 06:38:54;;;;;;;;;;;;;;;;;;6175761;23;19995;-86
2023/10/19 06:41:20;;;;;;;;;;;;;;;;;;6179145;23;19970;-86
2023/10/19 06:43:46;;;;;;;;;;;;;;;;;;6203575;23;19915;-86
2023/10/19 06:46:12;;;;;;;;;;;;;;;;;;6180735;23;20341;-86
2023/10/19 06:48:38;;;;;;;;;;;;;;;;;;6152217;23;20451;-86
2023/10/19 06:51:05;;;;;;;;;;;;;;;;;;6179843;23;19959;-86
2023/10/19 06:53:32;;;;;;;;;;;;;;;;;;6180907;23;19916;-86
2023/10/19 06:55:59;;;;;;;;;;;;;;;;;;6177592;23;19930;-86
2023/10/19 06:58:26;;;;;;;;;;;;;;;;;;6180566;23;19930;-86
2023/10/19 07:01:05;;;;;;;;;;;;;;;;;;6176419;23;20002;-86
2023/10/19 07:03:31;;;;;;;;;;;;;;;;;;6180195;23;20358;-86
2023/10/19 07:05:58;;;;;;;;;;;;;;;;;;6177080;23;19991;-86
2023/10/19 07:08:26;;;;;;;;;;;;;;;;;;6179966;23;19927;-86
2023/10/19 07:10:53;;;;;;;;;;;;;;;;;;6152048;23;20333;-86
2023/10/19 07:13:20;;;;;;;;;;;;;;;;;;6155002;23;19920;-86
2023/10/19 07:15:46;;;;;;;;;;;;;;;;;;6154188;23;19993;-86
2023/10/19 07:18:12;;;;;;;;;;;;;;;;;;6179683;23;19924;-86
2023/10/19 07:20:38;;;;;;;;;;;;;;;;;;6153665;23;20261;-86
2023/10/19 07:23:21;;;;;;;;;;;;;;;;;;6180554;23;19916;-86
2023/10/19 07:25:59;;;;;;;;;;;;;;;;;;6178071;23;19915;-86
2023/10/19 07:28:26;;;;;;;;;;;;;;;;;;6155193;23;19966;-86
2023/10/19 07:30:52;;;;;;;;;;;;;;;;;;6176673;23;19947;-86
2023/10/19 07:33:18;;;;;;;;;;;;;;;;;;6213686;23;19927;-86
2023/10/19 07:35:46;;;;;;;;;;;;;;;;;;6209221;23;19959;-86
2023/10/19 07:38:13;;;;;;;;;;;;;;;;;;6181208;23;19994;-86
2023/10/19 07:40:39;;;;;;;;;;;;;;;;;;6177198;23;20369;-86
2023/10/19 07:43:05;;;;;;;;;;;;;;;;;;6155813;23;19951;-86
2023/10/19 07:45:34;;;;;;;;;;;;;;;;;;6178932;23;19924;-86
2023/10/19 07:48:06;;;;;;;;;;;;;;;;;;6152331;23;19947;-86
2023/10/19 07:50:32;;;;;;;;;;;;;;;;;;6178676;23;19920;-86
2023/10/19 07:52:58;;;;;;;;;;;;;;;;;;6176394;23;20790;-86
2023/10/19 07:55:24;;;;;;;;;;;;;;;;;;6154147;23;19960;-86
2023/10/19 07:57:50;;;;;;;;;;;;;;;;;;6174915;23;19931;-86
2023/10/19 08:00:17;;;;;;;;;;;;;;;;;;6177644;23;19919;-86
2023/10/19 08:02:45;;;;;;;;;;;;;;;;;;6176808;23;19985;-86
2023/10/19 08:05:11;;;;;;;;;;;;;;;;;;6179555;23;19920;-86
2023/10/19 08:07:39;;;;;;;;;;;;;;;;;;6176746;23;19920;-86
2023/10/19 08:10:05;;;;;;;;;;;;;;;;;;6179024;23;19927;-86
2023/10/19 08:12:32;;;;;;;;;;;;;;;;;;6179535;23;19916;-86
2023/10/19 08:14:59;;;;;;;;;;;;;;;;;;6177734;23;20130;-86
2023/10/19 08:17:25;;;;;;;;;;;;;;;;;;6178819;23;20399;-86
2023/10/19 08:19:51;;;;;;;;;;;;;;;;;;6175870;23;19994;-86
2023/10/19 08:22:16;;;;;;;;;;;;;;;;;;6178824;23;19997;-86
2023/10/19 08:24:45;;;;;;;;;;;;;;;;;;6177558;23;19916;-86
2023/10/19 08:27:12;;;;;;;;;;;;;;;;;;6178779;23;19955;-86
2023/10/19 08:29:38;;;;;;;;;;;;;;;;;;6177999;23;19987;-86
2023/10/19 08:32:04;;;;;;;;;;;;;;;;;;6154114;23;19948;-86
2023/10/19 08:34:31;;;;;;;;;;;;;;;;;;6156049;23;19974;-86
2023/10/19 08:36:56;;;;;;;;;;;;;;;;;;6149968;23;19991;-86
2023/10/19 08:39:24;;;;;;;;;;;;;;;;;;6153292;23;19947;-86
2023/10/19 08:41:53;;;;;;;;;;;;;;;;;;6151218;23;20713;-86
2023/10/19 08:44:19;;;;;;;;;;;;;;;;;;6179408;23;19991;-86
2023/10/19 08:46:45;;;;;;;;;;;;;;;;;;6151820;23;19967;-86
2023/10/19 08:49:12;;;;;;;;;;;;;;;;;;6178576;23;19982;-86
2023/10/19 08:51:38;;;;;;;;;;;;;;;;;;6175686;23;19934;-86
2023/10/19 08:54:05;;;;;;;;;;;;;;;;;;6179502;23;19916;-86
2023/10/19 08:56:31;;;;;;;;;;;;;;;;;;6179497;23;19927;-86
2023/10/19 08:58:57;;;;;;;;;;;;;;;;;;6176958;23;19923;-86
2023/10/19 09:01:23;;;;;;;;;;;;;;;;;;6178490;23;20455;-86
2023/10/19 09:03:50;;;;;;;;;;;;;;;;;;6174845;23;19919;-86
2023/10/19 09:06:16;;;;;;;;;;;;;;;;;;6153235;23;19916;-86
2023/10/19 09:08:42;;;;;;;;;;;;;;;;;;6177532;23;19986;-86
2023/10/19 09:11:14;;;;;;;;;;;;;;;;;;6153797;23;19916;-86
2023/10/19 09:13:40;;;;;;;;;;;;;;;;;;6176140;23;19920;-87
2023/10/19 09:16:06;;;;;;;;;;;;;;;;;;6152218;23;19927;-86
2023/10/19 09:18:32;;;;;;;;;;;;;;;;;;6202850;23;19924;-86
2023/10/19 09:21:07;;;;;;;;;;;;;;;;;;6203062;23;20316;-86
2023/10/19 09:23:33;;;;;;;;;;;;;;;;;;6154911;23;19927;-86
2023/10/19 09:26:02;;;;;;;;;;;;;;;;;;6152735;23;19924;-86
2023/10/19 09:28:28;;;;;;;;;;;;;;;;;;6179343;23;19927;-86
2023/10/19 09:30:54;;;;;;;;;;;;;;;;;;6150917;23;19951;-86
2023/10/19 09:33:21;;;;;;;;;;;;;;;;;;6154675;23;19916;-86
2023/10/19 09:35:48;;;;;;;;;;;;;;;;;;6176792;23;19966;-86
2023/10/19 09:38:14;;;;;;;;;;;;;;;;;;6179197;23;19924;-86
2023/10/19 09:40:40;;;;;;;;;;;;;;;;;;6152882;23;19923;-87
2023/10/19 09:43:06;;;;;;;;;;;;;;;;;;6154860;23;19915;-86
2023/10/19 09:45:32;;;;;;;;;;;;;;;;;;6153417;23;20009;-86
2023/10/19 09:47:58;;;;;;;;;;;;;;;;;;6153110;23;19924;-86
2023/10/19 09:50:26;;;;;;;;;;;;;;;;;;6155051;23;19942;-86
2023/10/19 09:52:52;;;;;;;;;;;;;;;;;;6204612;23;19919;-86
2023/10/19 09:55:19;;;;;;;;;;;;;;;;;;6157321;23;20014;-86
2023/10/19 09:57:45;;;;;;;;;;;;;;;;;;6177623;23;19935;-86
2023/10/19 10:00:14;;;;;;;;;;;;;;;;;;6156027;23;19919;-86
2023/10/19 10:02:41;;;;;;;;;;;;;;;;;;6153216;23;19969;-86
2023/10/19 10:05:07;;;;;;;;;;;;;;;;;;6180961;23;19924;-86
2023/10/19 10:07:33;;;;;;;;;;;;;;;;;;6156399;23;19915;-86
2023/10/19 10:09:59;;;;;;;;;;;;;;;;;;6178313;23;19928;-86
2023/10/19 10:12:25;;;;;;;;;;;;;;;;;;6155285;23;19998;-86
2023/10/19 10:14:51;;;;;;;;;;;;;;;;;;6176291;23;19926;-86
2023/10/19 10:17:18;;;;;;;;;;;;;;;;;;6155247;23;19942;-86
2023/10/19 10:19:45;;;;;;;;;;;;;;;;;;6153488;23;19966;-86
2023/10/19 10:22:15;;;;;;;;;;;;;;;;;;6178971;23;19920;-86
2023/10/19 10:24:41;;;;;;;;;;;;;;;;;;6154049;23;19927;-86
2023/10/19 10:27:09;;;;;;;;;;;;;;;;;;6180766;23;19916;-86
2023/10/19 10:29:37;;;;;;;;;;;;;;;;;;6155764;23;20245;-86
2023/10/19 10:32:05;;;;;;;;;;;;;;;;;;6207361;23;19916;-86
2023/10/19 10:34:31;;;;;;;;;;;;;;;;;;6182340;23;20280;-86
2023/10/19 10:36:57;;;;;;;;;;;;;;;;;;6178516;23;20397;-86
2023/10/19 10:39:24;;;;;;;;;;;;;;;;;;6180945;23;20014;-86
2023/10/19 10:41:50;;;;;;;;;;;;;;;;;;6152690;23;19920;-86
2023/10/19 10:44:18;;;;;;;;;;;;;;;;;;6179806;23;19916;-86
2023/10/19 10:46:44;;;;;;;;;;;;;;;;;;6177625;23;19920;-86
2023/10/19 10:49:11;;;;;;;;;;;;;;;;;;6155937;23;19926;-86
2023/10/19 10:51:37;;;;;;;;;;;;;;;;;;6180966;23;19920;-87
2023/10/19 10:54:03;;;;;;;;;;;;;;;;;;6156109;23;20317;-86
2023/10/19 10:56:29;;;;;;;;;;;;;;;;;;6180500;23;20346;-86
2023/10/19 10:58:55;;;;;;;;;;;;;;;;;;6205651;23;19950;-86
2023/10/19 11:01:21;;;;;;;;;;;;;;;;;;6179157;23;19960;-86
2023/10/19 11:03:48;;;;;;;;;;;;;;;;;;6153728;23;19920;-87
2023/10/19 11:06:14;;;;;;;;;;;;;;;;;;6152831;23;19916;-86
2023/10/19 11:08:41;;;;;;;;;;;;;;;;;;6154761;23;19970;-86
2023/10/19 11:11:07;;;;;;;;;;;;;;;;;;6207111;23;19950;-86
2023/10/19 11:13:34;;;;;;;;;;;;;;;;;;6207541;23;19916;-86
2023/10/19 11:16:01;;;;;;;;;;;;;;;;;;6177236;23;19928;-86
2023/10/19 11:18:28;;;;;;;;;;;;;;;;;;6179605;23;19982;-86
2023/10/19 11:20:54;;;;;;;;;;;;;;;;;;6153583;23;20241;-86
2023/10/19 11:23:19;;;;;;;;;;;;;;;;;;6155144;23;19923;-86
2023/10/19 11:25:45;;;;;;;;;;;;;;;;;;6151978;23;19915;-86
2023/10/19 11:28:11;;;;;;;;;;;;;;;;;;6178931;23;19955;-86
2023/10/19 11:30:37;;;;;;;;;;;;;;;;;;6179370;23;19927;-86
2023/10/19 11:33:03;;;;;;;;;;;;;;;;;;6156003;23;20400;-86
2023/10/19 11:35:30;;;;;;;;;;;;;;;;;;6154603;23;19954;-87
2023/10/19 11:37:56;;;;;;;;;;;;;;;;;;6152214;23;19924;-86
2023/10/19 11:40:22;;;;;;;;;;;;;;;;;;6154151;23;19951;-86
2023/10/19 11:42:48;;;;;;;;;;;;;;;;;;6176230;23;19950;-86
2023/10/19 11:45:14;;;;;;;;;;;;;;;;;;6153625;23;19928;-86
2023/10/19 11:47:41;;;;;;;;;;;;;;;;;;6176932;23;19969;-86
2023/10/19 11:50:07;;;;;;;;;;;;;;;;;;6179262;23;20011;-86
2023/10/19 11:52:33;;;;;;;;;;;;;;;;;;6179486;23;20310;-87
2023/10/19 11:54:59;;;;;;;;;;;;;;;;;;6152740;23;19924;-86
2023/10/19 11:57:25;;;;;;;;;;;;;;;;;;6180153;23;19967;-87
2023/10/19 11:59:54;;;;;;;;;;;;;;;;;;6177525;23;20275;-87
2023/10/19 12:02:20;;;;;;;;;;;;;;;;;;6155142;23;19919;-86
2023/10/19 12:04:46;;;;;;;;;;;;;;;;;;6176044;23;19920;-86
2023/10/19 12:07:12;;;;;;;;;;;;;;;;;;6178064;23;19926;-86
2023/10/19 12:09:41;;;;;;;;;;;;;;;;;;6175470;23;20250;-86
2023/10/19 12:12:07;;;;;;;;;;;;;;;;;;6179781;23;19920;-86
2023/10/19 12:14:34;;;;;;;;;;;;;;;;;;6153886;23;20304;-86
2023/10/19 12:17:01;;;;;;;;;;;;;;;;;;6176791;23;19991;-86
2023/10/19 12:19:28;;;;;;;;;;;;;;;;;;6180123;23;19924;-86
2023/10/19 12:21:54;;;;;;;;;;;;;;;;;;6176981;23;19998;-87
2023/10/19 12:24:21;;;;;;;;;;;;;;;;;;6154362;23;20009;-86
2023/10/19 12:26:47;;;;;;;;;;;;;;;;;;6174743;23;19916;-87
2023/10/19 12:29:14;;;;;;;;;;;;;;;;;;6178814;23;19958;-86
2023/10/19 12:31:40;;;;;;;;;;;;;;;;;;6150482;23;20342;-87
2023/10/19 12:34:07;;;;;;;;;;;;;;;;;;6155587;23;19939;-86
2023/10/19 12:36:34;;;;;;;;;;;;;;;;;;6179186;23;20372;-86
2023/10/19 12:39:00;;;;;;;;;;;;;;;;;;6152309;23;19954;-87
2023/10/19 12:41:27;;;;;;;;;;;;;;;;;;6177954;23;19919;-86
2023/10/19 12:43:57;;;;;;;;;;;;;;;;;;6174395;23;19919;-86
2023/10/19 12:46:24;;;;;;;;;;;;;;;;;;6177129;23;20299;-87
2023/10/19 12:48:50;;;;;;;;;;;;;;;;;;6149700;23;19920;-87
2023/10/19 12:51:23;;;;;;;;;;;;;;;;;;6152814;23;20017;-87
2023/10/19 12:53:48;;;;;;;;;;;;;;;;;;6177180;23;19988;-87
2023/10/19 12:56:14;;;;;;;;;;;;;;;;;;6176688;23;19994;-86
2023/10/19 12:58:41;;;;;;;;;;;;;;;;;;6176695;23;20293;-87
2023/10/19 13:01:10;;;;;;;;;;;;;;;;;;6154059;23;19916;-86
2023/10/19 13:03:38;;;;;;;;;;;;;;;;;;6178632;23;19930;-86
2023/10/19 13:06:07;;;;;;;;;;;;;;;;;;6153578;23;20022;-86
2023/10/19 13:08:33;;;;;;;;;;;;;;;;;;6178900;23;19920;-86
2023/10/19 13:10:59;;;;;;;;;;;;;;;;;;6176281;23;19931;-87
2023/10/19 13:13:26;;;;;;;;;;;;;;;;;;6154186;23;20333;-87
2023/10/19 13:15:53;;;;;;;;;;;;;;;;;;6151581;23;19920;-87
2023/10/19 13:18:21;;;;;;;;;;;;;;;;;;6178595;23;20384;-86
2023/10/19 13:20:48;;;;;;;;;;;;;;;;;;6175023;23;19916;-87
2023/10/19 13:23:21;;;;;;;;;;;;;;;;;;6180902;23;19916;-86
2023/10/19 13:25:50;;;;;;;;;;;;;;;;;;6155271;23;19970;-87
2023/10/19 13:28:17;;;;;;;;;;;;;;;;;;6181837;23;20321;-86
2023/10/19 13:30:43;;;;;;;;;;;;;;;;;;6205094;23;19916;-87
2023/10/19 13:33:09;;;;;;;;;;;;;;;;;;6155347;23;19924;-86
2023/10/19 13:35:35;;;;;;;;;;;;;;;;;;6181789;23;20334;-86
2023/10/19 13:38:01;;;;;;;;;;;;;;;;;;6189157;23;19935;-87
2023/10/19 13:40:29;;;;;;;;;;;;;;;;;;6181835;23;19926;-86
2023/10/19 13:42:56;;;;;;;;;;;;;;;;;;6177250;23;19945;-86
2023/10/19 13:45:22;;;;;;;;;;;;;;;;;;6179596;23;19955;-86
2023/10/19 13:47:49;;;;;;;;;;;;;;;;;;6204967;23;19924;-87
2023/10/19 13:50:15;;;;;;;;;;;;;;;;;;6154327;23;19958;-86
2023/10/19 13:52:41;;;;;;;;;;;;;;;;;;6179156;23;19919;-86
2023/10/19 13:55:07;;;;;;;;;;;;;;;;;;6181761;23;19922;-87
2023/10/19 13:57:33;;;;;;;;;;;;;;;;;;6156433;23;19928;-86
2023/10/19 14:00:01;;;;;;;;;;;;;;;;;;6151189;23;20456;-86
2023/10/19 14:02:26;;;;;;;;;;;;;;;;;;6152348;23;19919;-86
2023/10/19 14:04:53;;;;;;;;;;;;;;;;;;6176613;23;20363;-86
2023/10/19 14:07:19;;;;;;;;;;;;;;;;;;6179475;23;19920;-86
2023/10/19 14:09:45;;;;;;;;;;;;;;;;;;6176615;23;20321;-86
2023/10/19 14:12:11;;;;;;;;;;;;;;;;;;6178605;23;19920;-86
2023/10/19 14:14:37;;;;;;;;;;;;;;;;;;6155068;23;19920;-86
2023/10/19 14:17:05;;;;;;;;;;;;;;;;;;6150749;23;19926;-86
2023/10/19 14:19:31;;;;;;;;;;;;;;;;;;6176894;23;19924;-86
2023/10/19 14:21:57;;;;;;;;;;;;;;;;;;6150052;23;19920;-86
2023/10/19 14:24:23;;;;;;;;;;;;;;;;;;6179065;23;19916;-86
2023/10/19 14:26:48;;;;;;;;;;;;;;;;;;6202542;23;20101;-86
2023/10/19 14:29:15;;;;;;;;;;;;;;;;;;6178473;23;19920;-86
2023/10/19 14:31:41;;;;;;;;;;;;;;;;;;6150674;23;19916;-86
2023/10/19 15:29:53;;;;;;;;;;;;;;;;;;6089138;23;19919;-90
2023/10/19 15:32:44;;;;;;;;;;;;;;;;;;6023395;23;20041;-90
2023/10/19 15:41:54;;;;;;;;;;;;;;;;;;;;;
2023/10/19 15:48:05;;;;;;;;;;;;;;;;;;5992642;23;19945;-90
2023/10/19 15:50:36;;;;;;;;;;;;;;;;;;6052195;23;19921;-90
2023/10/19 15:53:37;;;;;;;;;;;;;;;;;;;;;
2023/10/19 15:56:16;;;;;;;;;;;;;;;;;;6055073;23;19921;-89
2023/10/19 16:01:54;;;;;;;;;;;;;;;;;;6158509;23;19924;-90
2023/10/19 16:10:26;;;;;;;;;;;;;;;;;;;;;
2023/10/19 16:13:08;;;;;;;;;;;;;;;;;;6192631;23;19923;-89
2023/10/19 16:19:12;;;;;;;;;;;;;;;;;;;;;
2023/10/19 17:55:25;;;;;;;;;;;;;;;;;;6167386;22;19947;-87
2023/10/19 17:57:53;;;;;;;;;;;;;;;;;;6135488;23;19924;-87
2023/10/19 18:00:33;;;;;;;;;;;;;;;;;;6140143;23;20783;-87
2023/10/19 18:02:59;;;;;;;;;;;;;;;;;;6134751;23;20362;-88
2023/10/19 20:15:35;;;;;;;;;;;;;;;;;;6206596;22;20042;-90
2023/10/19 20:18:01;;;;;;;;;;;;;;;;;;6213007;23;20407;-89
2023/10/19 20:20:28;;;;;;;;;;;;;;;;;;6177620;23;19926;-90
2023/10/19 20:22:57;;;;;;;;;;;;;;;;;;6201853;23;19919;-90
2023/10/19 20:25:23;;;;;;;;;;;;;;;;;;6180578;23;19919;-90
2023/10/19 20:27:52;;;;;;;;;;;;;;;;;;6178145;23;19920;-90
2023/10/19 20:30:18;;;;;;;;;;;;;;;;;;6206586;23;19919;-90
2023/10/19 20:32:46;;;;;;;;;;;;;;;;;;6176183;23;19915;-91
2023/10/19 20:35:17;;;;;;;;;;;;;;;;;;6181761;23;19931;-90
2023/10/19 20:37:43;;;;;;;;;;;;;;;;;;6177302;23;20015;-91
2023/10/19 20:40:09;;;;;;;;;;;;;;;;;;6206136;23;19919;-90
2023/10/19 20:42:35;;;;;;;;;;;;;;;;;;6205243;23;19951;-90
2023/10/19 20:45:01;;;;;;;;;;;;;;;;;;6177766;23;19919;-90
2023/10/19 20:47:27;;;;;;;;;;;;;;;;;;6206130;23;19999;-90
2023/10/19 20:49:53;;;;;;;;;;;;;;;;;;6203025;23;19974;-90
2023/10/19 20:52:19;;;;;;;;;;;;;;;;;;6232859;23;20400;-90
2023/10/19 20:54:45;;;;;;;;;;;;;;;;;;6178653;23;19954;-90
2023/10/19 20:57:11;;;;;;;;;;;;;;;;;;6181349;23;19919;-91
2023/10/19 20:59:38;;;;;;;;;;;;;;;;;;6180737;23;20336;-91
2023/10/19 21:02:04;;;;;;;;;;;;;;;;;;6177786;23;19922;-91
2023/10/19 21:04:34;;;;;;;;;;;;;;;;;;6203109;23;20320;-90
2023/10/19 21:07:01;;;;;;;;;;;;;;;;;;6203120;23;19930;-90
2023/10/19 21:09:27;;;;;;;;;;;;;;;;;;6205740;23;20324;-91
2023/10/19 21:11:53;;;;;;;;;;;;;;;;;;6202170;23;19922;-90
2023/10/19 21:14:18;;;;;;;;;;;;;;;;;;6181296;23;20218;-90
2023/10/19 21:16:44;;;;;;;;;;;;;;;;;;6174130;23;20304;-90
2023/10/19 21:19:10;;;;;;;;;;;;;;;;;;6201951;23;19954;-91
2023/10/19 21:21:36;;;;;;;;;;;;;;;;;;6178669;23;19920;-91
2023/10/19 21:24:03;;;;;;;;;;;;;;;;;;6177745;23;19927;-91
2023/10/19 21:26:29;;;;;;;;;;;;;;;;;;6206866;23;19974;-91
2023/10/19 21:28:55;;;;;;;;;;;;;;;;;;6178057;23;19923;-90
2023/10/19 21:31:21;;;;;;;;;;;;;;;;;;6179680;23;19919;-90
2023/10/19 21:33:47;;;;;;;;;;;;;;;;;;6178404;23;19927;-90
2023/10/19 21:36:13;;;;;;;;;;;;;;;;;;6204853;23;19972;-90
2023/10/19 21:38:40;;;;;;;;;;;;;;;;;;6179078;23;20002;-90
2023/10/19 21:41:06;;;;;;;;;;;;;;;;;;6181415;23;19927;-88
2023/10/19 21:43:32;;;;;;;;;;;;;;;;;;6184627;23;20244;-89
2023/10/19 21:45:58;;;;;;;;;;;;;;;;;;6181454;23;19927;-90
2023/10/19 21:48:24;;;;;;;;;;;;;;;;;;6183685;23;20347;-91
2023/10/19 21:50:52;;;;;;;;;;;;;;;;;;6180439;23;19955;-91
2023/10/19 21:53:18;;;;;;;;;;;;;;;;;;6208202;23;19974;-90
2023/10/19 21:55:44;;;;;;;;;;;;;;;;;;6206210;23;20287;-91
2023/10/19 21:58:10;;;;;;;;;;;;;;;;;;6207818;23;19931;-91
2023/10/19 22:00:36;;;;;;;;;;;;;;;;;;6180639;23;20320;-90
2023/10/19 22:03:03;;;;;;;;;;;;;;;;;;6178015;23;19994;-92
2023/10/19 22:05:29;;;;;;;;;;;;;;;;;;6206130;23;20321;-91